Time;durP1;ratioP1;P1;durP2;ratioP2;P2;SDS_P1;SDS_P2;PMS_P1;PMS_P2;Temp;Humidity;BMP_temperature;BMP_pressure;BME280_temperature;BME280_humidity;BME280_pressure;Samples;Min_cycle;Max_cycle;Signal;HPM_P1;HPM_P2
2022/07/24 00:01:56;;;;;;;5.60;3.05;;;;;;;;;;2346758;57;21129;-74
2022/07/24 00:04:23;;;;;;;4.25;2.53;;;;;;;;;;2346597;57;21120;-75
2022/07/24 00:06:50;;;;;;;3.90;2.67;;;;;;;;;;2376419;53;21037;-73
2022/07/24 00:09:17;;;;;;;3.47;2.60;;;;;;;;;;2346800;57;21037;-74
2022/07/24 00:11:44;;;;;;;5.37;2.50;;;;;;;;;;2346578;57;21207;-74
2022/07/24 00:14:12;;;;;;;3.35;2.45;;;;;;;;;;2345966;57;21596;-74
2022/07/24 00:16:39;;;;;;;3.97;2.62;;;;;;;;;;2346041;57;21536;-73
2022/07/24 00:19:06;;;;;;;4.82;2.80;;;;;;;;;;2346511;57;21140;-73
2022/07/24 00:21:33;;;;;;;3.72;2.85;;;;;;;;;;2391641;53;21026;-74
2022/07/24 00:24:00;;;;;;;4.45;2.70;;;;;;;;;;2346639;57;21041;-73
2022/07/24 00:26:27;;;;;;;4.15;2.45;;;;;;;;;;2346107;57;21030;-74
2022/07/24 00:28:54;;;;;;;3.20;2.42;;;;;;;;;;2346395;57;21053;-74
2022/07/24 00:31:21;;;;;;;4.50;2.85;;;;;;;;;;2345960;57;21096;-74
2022/07/24 00:33:48;;;;;;;2.83;2.30;;;;;;;;;;2346585;57;21050;-74
2022/07/24 00:36:16;;;;;;;4.05;2.55;;;;;;;;;;2346409;57;21045;-73
2022/07/24 00:38:43;;;;;;;2.40;2.10;;;;;;;;;;2353572;53;21171;-73
2022/07/24 00:41:10;;;;;;;3.53;2.70;;;;;;;;;;2346730;57;21081;-74
2022/07/24 00:43:59;;;;;;;7.82;2.70;;;;;;;;;;2346762;57;21133;-74
2022/07/24 00:46:26;;;;;;;3.22;2.65;;;;;;;;;;2352711;53;21527;-74
2022/07/24 00:48:53;;;;;;;4.50;2.62;;;;;;;;;;2346454;57;21599;-73
2022/07/24 00:51:20;;;;;;;4.20;2.67;;;;;;;;;;2346379;57;21116;-74
2022/07/24 00:53:47;;;;;;;5.43;3.00;;;;;;;;;;2346536;57;21038;-73
2022/07/24 00:56:14;;;;;;;3.83;2.85;;;;;;;;;;2346109;57;21128;-74
2022/07/24 00:58:41;;;;;;;3.22;2.80;;;;;;;;;;2346272;57;21038;-73
2022/07/24 01:01:08;;;;;;;5.78;2.72;;;;;;;;;;2346270;57;21038;-74
2022/07/24 01:03:35;;;;;;;3.80;2.80;;;;;;;;;;2346049;57;21614;-73
2022/07/24 01:06:02;;;;;;;5.57;3.08;;;;;;;;;;2345750;57;21018;-73
2022/07/24 01:08:30;;;;;;;6.00;3.40;;;;;;;;;;2346180;57;21049;-74
2022/07/24 01:10:57;;;;;;;3.55;2.80;;;;;;;;;;2346183;57;21076;-73
2022/07/24 01:13:24;;;;;;;4.50;2.78;;;;;;;;;;2346493;57;21049;-74
2022/07/24 01:15:51;;;;;;;5.00;2.65;;;;;;;;;;2388615;53;21097;-74
2022/07/24 01:18:18;;;;;;;3.62;2.83;;;;;;;;;;2346478;57;21053;-74
2022/07/24 01:20:47;;;;;;;4.87;3.20;;;;;;;;;;2346241;57;21524;-74
2022/07/24 01:23:14;;;;;;;4.45;3.42;;;;;;;;;;2346417;57;21592;-73
2022/07/24 01:25:41;;;;;;;5.75;3.22;;;;;;;;;;2346300;57;21064;-74
2022/07/24 01:28:09;;;;;;;4.60;3.35;;;;;;;;;;2346640;57;21077;-73
2022/07/24 01:30:36;;;;;;;5.65;3.20;;;;;;;;;;2346718;57;21049;-74
2022/07/24 01:33:04;;;;;;;4.72;3.33;;;;;;;;;;2346788;57;21053;-73
2022/07/24 01:35:31;;;;;;;5.35;3.17;;;;;;;;;;2345857;57;21571;-73
2022/07/24 01:37:58;;;;;;;5.75;3.47;;;;;;;;;;2346380;57;21097;-73
2022/07/24 01:40:25;;;;;;;3.37;2.90;;;;;;;;;;2346382;57;21038;-73
2022/07/24 01:42:52;;;;;;;6.03;3.28;;;;;;;;;;2593881;53;21069;-75
2022/07/24 01:45:20;;;;;;;3.80;3.05;;;;;;;;;;2402646;53;21101;-74
2022/07/24 01:47:47;;;;;;;4.37;3.62;;;;;;;;;;2346456;57;21037;-74
2022/07/24 01:50:14;;;;;;;7.10;3.50;;;;;;;;;;2346523;57;21046;-74
2022/07/24 01:52:41;;;;;;;4.07;3.10;;;;;;;;;;2574109;53;21662;-74
2022/07/24 01:55:10;;;;;;;4.40;3.30;;;;;;;;;;2346511;57;21092;-74
2022/07/24 01:57:37;;;;;;;5.20;3.53;;;;;;;;;;2346519;57;21053;-75
2022/07/24 02:00:08;;;;;;;3.30;3.00;;;;;;;;;;2346125;57;22145;-74
2022/07/24 02:02:35;;;;;;;5.30;3.50;;;;;;;;;;2460556;53;21556;-74
2022/07/24 02:05:02;;;;;;;4.20;3.15;;;;;;;;;;2345748;57;21037;-74
2022/07/24 02:07:29;;;;;;;4.15;2.67;;;;;;;;;;2346218;57;21108;-74
2022/07/24 02:09:56;;;;;;;4.97;3.67;;;;;;;;;;2346349;57;21014;-74
2022/07/24 02:12:23;;;;;;;4.05;3.35;;;;;;;;;;2346602;57;21113;-72
2022/07/24 02:14:50;;;;;;;4.90;3.30;;;;;;;;;;2352516;53;21085;-74
2022/07/24 02:17:17;;;;;;;5.03;3.00;;;;;;;;;;2349775;53;21666;-72
2022/07/24 02:19:44;;;;;;;3.35;3.05;;;;;;;;;;2345627;57;21042;-74
2022/07/24 02:22:11;;;;;;;4.30;3.55;;;;;;;;;;2346842;53;21117;-75
2022/07/24 02:24:38;;;;;;;3.25;2.85;;;;;;;;;;2346744;57;21049;-74
2022/07/24 02:27:05;;;;;;;5.65;2.85;;;;;;;;;;2345648;57;21102;-74
2022/07/24 02:29:32;;;;;;;3.67;3.20;;;;;;;;;;2346427;57;21054;-74
2022/07/24 02:32:00;;;;;;;3.22;2.80;;;;;;;;;;2346200;57;21033;-74
2022/07/24 02:34:27;;;;;;;5.00;3.17;;;;;;;;;;2346725;57;21563;-73
2022/07/24 02:36:54;;;;;;;3.78;2.58;;;;;;;;;;2345522;57;21113;-74
2022/07/24 02:39:21;;;;;;;4.22;2.95;;;;;;;;;;2346786;57;21106;-73
2022/07/24 02:41:48;;;;;;;4.43;3.00;;;;;;;;;;2346495;57;21096;-74
2022/07/24 02:44:16;;;;;;;3.03;2.40;;;;;;;;;;2346835;57;21033;-73
2022/07/24 02:46:43;;;;;;;3.83;2.72;;;;;;;;;;2345826;57;21089;-74
2022/07/24 02:49:10;;;;;;;5.87;3.15;;;;;;;;;;2346852;57;21037;-74
2022/07/24 02:51:37;;;;;;;4.15;3.17;;;;;;;;;;2346660;57;21093;-74
2022/07/24 02:54:04;;;;;;;4.85;3.20;;;;;;;;;;2346008;57;21129;-74
2022/07/24 02:56:31;;;;;;;6.40;3.00;;;;;;;;;;2345821;57;21580;-74
2022/07/24 02:58:58;;;;;;;3.30;2.97;;;;;;;;;;2346219;57;21113;-73
2022/07/24 03:01:26;;;;;;;3.15;2.78;;;;;;;;;;2346090;57;21163;-74
2022/07/24 03:03:53;;;;;;;5.60;3.28;;;;;;;;;;2360908;53;21046;-74
2022/07/24 03:06:20;;;;;;;5.32;3.42;;;;;;;;;;2345731;57;21100;-74
2022/07/24 03:08:47;;;;;;;3.97;3.08;;;;;;;;;;2346582;57;21600;-73
2022/07/24 03:11:14;;;;;;;3.20;2.90;;;;;;;;;;2500019;53;21543;-74
2022/07/24 03:13:41;;;;;;;3.58;3.25;;;;;;;;;;2346224;57;21304;-73
2022/07/24 03:16:08;;;;;;;5.75;3.97;;;;;;;;;;2345097;57;21524;-74
2022/07/24 03:18:35;;;;;;;5.93;3.92;;;;;;;;;;2346601;57;21694;-74
2022/07/24 03:21:02;;;;;;;7.37;3.90;;;;;;;;;;2346483;57;21037;-74
2022/07/24 03:23:29;;;;;;;5.12;3.85;;;;;;;;;;2346733;57;21120;-74
2022/07/24 03:25:57;;;;;;;5.30;4.15;;;;;;;;;;2593060;53;21030;-74
2022/07/24 03:28:24;;;;;;;3.58;3.28;;;;;;;;;;2346190;57;21050;-74
2022/07/24 03:30:51;;;;;;;4.00;2.92;;;;;;;;;;2345821;57;21518;-75
2022/07/24 03:33:18;;;;;;;5.12;3.55;;;;;;;;;;2346519;57;21029;-73
2022/07/24 03:35:45;;;;;;;3.22;2.92;;;;;;;;;;2345981;57;21045;-74
2022/07/24 03:38:12;;;;;;;5.03;3.65;;;;;;;;;;2346675;57;21026;-75
2022/07/24 03:40:39;;;;;;;4.68;3.53;;;;;;;;;;2346259;57;21043;-73
2022/07/24 03:43:06;;;;;;;7.32;3.87;;;;;;;;;;2468351;53;21061;-73
2022/07/24 03:45:34;;;;;;;4.60;3.85;;;;;;;;;;2345587;57;21572;-74
2022/07/24 03:48:01;;;;;;;5.97;4.10;;;;;;;;;;2346168;57;21021;-74
2022/07/24 03:50:28;;;;;;;6.50;4.35;;;;;;;;;;2346386;57;21033;-73
2022/07/24 03:52:55;;;;;;;7.62;4.43;;;;;;;;;;2346372;57;21576;-74
2022/07/24 03:55:22;;;;;;;7.45;5.05;;;;;;;;;;2345832;57;21041;-74
2022/07/24 03:57:49;;;;;;;6.53;4.18;;;;;;;;;;2346788;57;21639;-74
2022/07/24 04:00:17;;;;;;;4.30;3.78;;;;;;;;;;2373635;53;21041;-74
2022/07/24 04:02:44;;;;;;;5.35;4.60;;;;;;;;;;2346445;57;21579;-75
2022/07/24 04:05:13;;;;;;;8.95;5.18;;;;;;;;;;2346553;57;21050;-74
2022/07/24 04:07:40;;;;;;;7.12;5.07;;;;;;;;;;2346528;57;21032;-74
2022/07/24 04:10:09;;;;;;;6.75;4.40;;;;;;;;;;2346570;57;21042;-74
2022/07/24 04:12:36;;;;;;;7.68;5.43;;;;;;;;;;2345390;57;21117;-74
2022/07/24 04:15:03;;;;;;;9.45;6.18;;;;;;;;;;2346216;57;21105;-75
2022/07/24 04:17:30;;;;;;;7.07;5.45;;;;;;;;;;2456659;53;21033;-74
2022/07/24 04:19:57;;;;;;;8.10;5.57;;;;;;;;;;2346388;57;21310;-74
2022/07/24 04:22:24;;;;;;;6.60;4.28;;;;;;;;;;2373945;53;21034;-74
2022/07/24 04:24:51;;;;;;;7.07;4.72;;;;;;;;;;2346350;57;21089;-74
2022/07/24 04:27:18;;;;;;;8.25;5.40;;;;;;;;;;2345508;57;21041;-74
2022/07/24 04:29:45;;;;;;;6.32;4.70;;;;;;;;;;2346232;57;21114;-74
2022/07/24 04:32:13;;;;;;;8.25;4.60;;;;;;;;;;2369283;53;21057;-73
2022/07/24 04:34:40;;;;;;;4.80;4.20;;;;;;;;;;2349340;53;21105;-74
2022/07/24 04:37:07;;;;;;;7.45;4.57;;;;;;;;;;2359428;53;21148;-74
2022/07/24 04:39:34;;;;;;;5.50;4.85;;;;;;;;;;2346510;57;21512;-74
2022/07/24 04:42:01;;;;;;;7.78;4.43;;;;;;;;;;2346600;57;21674;-74
2022/07/24 04:44:28;;;;;;;4.20;3.80;;;;;;;;;;2369126;53;21097;-74
2022/07/24 04:46:55;;;;;;;7.25;4.12;;;;;;;;;;2345964;57;21041;-73
2022/07/24 04:49:22;;;;;;;5.82;4.40;;;;;;;;;;2346436;57;21025;-73
2022/07/24 04:51:49;;;;;;;4.93;3.45;;;;;;;;;;2345945;57;21033;-74
2022/07/24 04:54:16;;;;;;;5.28;3.75;;;;;;;;;;2346221;57;21100;-73
2022/07/24 04:56:43;;;;;;;3.95;3.33;;;;;;;;;;2345887;57;21021;-74
2022/07/24 04:59:10;;;;;;;8.35;3.90;;;;;;;;;;2374050;53;21061;-76
2022/07/24 05:01:38;;;;;;;4.30;3.42;;;;;;;;;;2592539;53;21049;-76
2022/07/24 05:04:05;;;;;;;5.82;3.97;;;;;;;;;;2345158;57;21105;-76
2022/07/24 05:06:32;;;;;;;3.47;3.17;;;;;;;;;;2345220;57;21037;-76
2022/07/24 05:08:59;;;;;;;4.30;3.45;;;;;;;;;;2344992;57;21045;-76
2022/07/24 05:11:26;;;;;;;4.60;3.42;;;;;;;;;;2345505;57;21120;-76
2022/07/24 05:13:53;;;;;;;5.10;3.00;;;;;;;;;;2345082;57;21057;-76
2022/07/24 05:16:20;;;;;;;6.62;3.62;;;;;;;;;;2344669;57;21040;-76
2022/07/24 05:18:47;;;;;;;7.90;3.28;;;;;;;;;;2345072;57;21508;-76
2022/07/24 05:21:15;;;;;;;6.03;3.08;;;;;;;;;;2345173;57;21116;-75
2022/07/24 05:23:43;;;;;;;4.22;3.00;;;;;;;;;;2345367;57;21120;-76
2022/07/24 05:26:10;;;;;;;3.50;2.72;;;;;;;;;;2344679;57;21124;-75
2022/07/24 05:28:37;;;;;;;6.97;3.70;;;;;;;;;;2345202;57;21034;-76
2022/07/24 05:31:04;;;;;;;4.35;3.50;;;;;;;;;;2344858;57;21037;-75
2022/07/24 05:33:31;;;;;;;5.22;3.42;;;;;;;;;;2345229;57;21037;-76
2022/07/24 05:35:58;;;;;;;4.72;3.65;;;;;;;;;;2591366;53;21536;-75
2022/07/24 05:38:26;;;;;;;4.53;2.87;;;;;;;;;;2345210;57;21061;-75
2022/07/24 05:40:53;;;;;;;6.15;2.97;;;;;;;;;;2345668;57;21113;-75
2022/07/24 05:43:20;;;;;;;5.85;3.35;;;;;;;;;;2345218;57;21525;-75
2022/07/24 05:45:50;;;;;;;5.30;3.33;;;;;;;;;;2344729;57;21368;-75
2022/07/24 05:48:17;;;;;;;4.65;2.80;;;;;;;;;;2345574;57;21563;-76
2022/07/24 05:50:44;;;;;;;3.58;2.80;;;;;;;;;;2344862;57;21042;-75
2022/07/24 05:53:11;;;;;;;4.60;2.65;;;;;;;;;;2345554;57;21128;-75
2022/07/24 05:55:38;;;;;;;3.70;2.67;;;;;;;;;;2345022;57;21026;-76
2022/07/24 05:58:05;;;;;;;2.90;2.50;;;;;;;;;;2345318;57;21036;-75
2022/07/24 06:00:32;;;;;;;5.25;3.00;;;;;;;;;;2344567;57;21528;-75
2022/07/24 06:02:59;;;;;;;4.50;2.65;;;;;;;;;;2345151;57;21061;-74
2022/07/24 06:05:26;;;;;;;7.90;3.15;;;;;;;;;;2344797;57;21057;-75
2022/07/24 06:07:53;;;;;;;3.35;2.42;;;;;;;;;;2345737;57;21108;-75
2022/07/24 06:10:21;;;;;;;3.12;2.50;;;;;;;;;;2345513;57;21547;-75
2022/07/24 06:12:48;;;;;;;4.28;2.90;;;;;;;;;;2345343;57;21018;-75
2022/07/24 06:15:15;;;;;;;4.10;2.67;;;;;;;;;;2344669;57;21096;-76
2022/07/24 06:17:42;;;;;;;3.22;2.33;;;;;;;;;;2344211;57;21096;-75
2022/07/24 06:20:12;;;;;;;4.43;2.42;;;;;;;;;;2345358;57;21037;-75
2022/07/24 06:22:39;;;;;;;5.25;2.25;;;;;;;;;;2345270;57;21116;-75
2022/07/24 06:25:07;;;;;;;7.05;2.80;;;;;;;;;;2345562;57;21101;-75
2022/07/24 06:27:34;;;;;;;6.20;2.20;;;;;;;;;;2592248;53;21112;-75
2022/07/24 06:30:01;;;;;;;4.15;2.40;;;;;;;;;;2345034;57;21125;-75
2022/07/24 06:32:28;;;;;;;5.07;2.60;;;;;;;;;;2344970;57;21176;-75
2022/07/24 06:34:55;;;;;;;2.80;2.15;;;;;;;;;;2344223;57;21041;-75
2022/07/24 06:37:22;;;;;;;2.67;2.20;;;;;;;;;;2344664;57;21673;-75
2022/07/24 06:39:49;;;;;;;3.62;2.28;;;;;;;;;;2345041;57;21038;-75
2022/07/24 06:42:16;;;;;;;2.85;2.20;;;;;;;;;;2346137;57;21034;-75
2022/07/24 06:44:43;;;;;;;3.40;1.80;;;;;;;;;;2346607;57;21105;-76
2022/07/24 06:47:10;;;;;;;4.07;2.15;;;;;;;;;;2345670;57;21056;-75
2022/07/24 06:49:38;;;;;;;2.85;1.90;;;;;;;;;;2346080;57;21630;-75
2022/07/24 06:52:05;;;;;;;3.10;2.00;;;;;;;;;;2345020;57;21575;-75
2022/07/24 06:54:32;;;;;;;5.80;2.08;;;;;;;;;;2346480;57;21095;-76
2022/07/24 06:56:59;;;;;;;3.60;1.85;;;;;;;;;;2345579;57;21057;-76
2022/07/24 06:59:26;;;;;;;2.67;2.08;;;;;;;;;;2345965;57;21033;-75
2022/07/24 07:01:53;;;;;;;2.62;1.80;;;;;;;;;;2345959;57;21042;-76
2022/07/24 07:04:21;;;;;;;2.28;1.90;;;;;;;;;;2346148;57;21038;-75
2022/07/24 07:06:48;;;;;;;2.12;1.75;;;;;;;;;;2592926;53;21029;-75
2022/07/24 07:09:15;;;;;;;2.42;2.08;;;;;;;;;;2345854;57;21041;-74
2022/07/24 07:11:42;;;;;;;3.47;2.30;;;;;;;;;;2592748;53;21085;-75
2022/07/24 07:14:09;;;;;;;1.73;1.62;;;;;;;;;;2345311;57;21104;-75
2022/07/24 07:16:36;;;;;;;2.87;1.90;;;;;;;;;;2345718;57;21564;-75
2022/07/24 07:19:03;;;;;;;1.98;1.77;;;;;;;;;;2344608;57;22240;-75
2022/07/24 07:21:31;;;;;;;3.15;1.90;;;;;;;;;;2343056;57;21108;-75
2022/07/24 07:23:58;;;;;;;3.25;1.58;;;;;;;;;;2344106;57;21070;-74
2022/07/24 07:26:25;;;;;;;3.80;1.75;;;;;;;;;;2341661;57;21027;-75
2022/07/24 07:28:53;;;;;;;3.33;1.90;;;;;;;;;;2588331;53;21096;-75
2022/07/24 07:31:21;;;;;;;1.62;1.52;;;;;;;;;;2342723;57;21034;-74
2022/07/24 07:33:48;;;;;;;2.58;1.80;;;;;;;;;;2343095;57;21054;-74
2022/07/24 07:36:15;;;;;;;2.00;1.83;;;;;;;;;;2342711;57;21064;-75
2022/07/24 07:38:42;;;;;;;1.73;1.42;;;;;;;;;;2344875;57;21133;-75
2022/07/24 07:41:09;;;;;;;1.65;1.50;;;;;;;;;;2344797;57;21524;-75
2022/07/24 07:43:36;;;;;;;2.65;1.98;;;;;;;;;;2343914;57;21049;-75
2022/07/24 07:46:03;;;;;;;3.17;1.65;;;;;;;;;;2344264;57;21089;-74
2022/07/24 07:48:31;;;;;;;2.95;1.65;;;;;;;;;;2345285;57;21054;-75
2022/07/24 07:50:58;;;;;;;5.25;2.22;;;;;;;;;;2343372;57;21120;-75
2022/07/24 07:53:25;;;;;;;2.17;1.60;;;;;;;;;;2343461;57;21076;-75
2022/07/24 07:55:52;;;;;;;2.17;1.65;;;;;;;;;;2342991;57;21547;-74
2022/07/24 07:58:19;;;;;;;4.28;2.00;;;;;;;;;;2343206;57;21037;-74
2022/07/24 08:00:46;;;;;;;3.05;1.60;;;;;;;;;;2343234;57;21054;-76
2022/07/24 08:03:14;;;;;;;3.40;1.65;;;;;;;;;;2340505;57;21125;-75
2022/07/24 08:05:41;;;;;;;1.65;1.50;;;;;;;;;;2342411;57;21057;-75
2022/07/24 08:08:08;;;;;;;2.40;1.70;;;;;;;;;;2343069;57;21540;-75
2022/07/24 08:10:35;;;;;;;3.92;1.87;;;;;;;;;;2344378;57;21494;-75
2022/07/24 08:13:02;;;;;;;3.25;1.80;;;;;;;;;;2343355;57;21050;-75
2022/07/24 08:15:29;;;;;;;2.17;1.50;;;;;;;;;;2343944;57;21179;-76
2022/07/24 08:17:57;;;;;;;2.22;1.50;;;;;;;;;;2344012;57;21061;-76
2022/07/24 08:20:25;;;;;;;2.90;1.70;;;;;;;;;;2345103;57;21021;-74
2022/07/24 08:22:52;;;;;;;2.17;1.62;;;;;;;;;;2344365;57;21037;-74
2022/07/24 08:25:20;;;;;;;2.20;1.67;;;;;;;;;;2343534;57;21121;-75
2022/07/24 08:27:47;;;;;;;2.37;1.80;;;;;;;;;;2343771;57;21121;-75
2022/07/24 08:30:14;;;;;;;2.40;1.87;;;;;;;;;;2344519;57;21116;-75
2022/07/24 08:32:43;;;;;;;3.33;1.80;;;;;;;;;;2343671;57;21042;-76
2022/07/24 08:35:11;;;;;;;2.60;1.52;;;;;;;;;;2344087;57;21101;-75
2022/07/24 08:37:39;;;;;;;4.82;1.70;;;;;;;;;;2344251;57;21544;-74
2022/07/24 08:40:08;;;;;;;2.03;1.77;;;;;;;;;;2344808;57;21121;-74
2022/07/24 08:42:36;;;;;;;4.07;1.83;;;;;;;;;;2344229;57;21104;-75
2022/07/24 08:45:03;;;;;;;3.03;1.77;;;;;;;;;;2343016;57;21050;-74
2022/07/24 08:47:32;;;;;;;2.58;1.87;;;;;;;;;;2303866;57;21089;-74
2022/07/24 08:50:01;;;;;;;2.47;1.60;;;;;;;;;;2344415;57;21137;-75
2022/07/24 08:52:28;;;;;;;3.00;1.60;;;;;;;;;;2345100;57;21018;-74
2022/07/24 08:54:55;;;;;;;2.83;1.90;;;;;;;;;;2344566;57;21109;-74
2022/07/24 08:57:22;;;;;;;2.45;1.42;;;;;;;;;;2343482;57;21069;-74
2022/07/24 08:59:49;;;;;;;2.65;1.62;;;;;;;;;;2338885;57;21133;-75
2022/07/24 09:02:17;;;;;;;1.75;1.50;;;;;;;;;;2343243;57;21113;-74
2022/07/24 09:07:23;;;;;;;4.43;2.23;;;;;;;;;;2334437;57;28824;-76
2022/07/24 09:09:59;;;;;;;3.40;2.12;;;;;;;;;;2345669;57;21057;-76
2022/07/24 09:12:26;;;;;;;2.62;1.95;;;;;;;;;;2317945;58;21116;-75
2022/07/24 09:14:53;;;;;;;2.28;1.73;;;;;;;;;;2318015;58;21650;-76
2022/07/24 09:17:21;;;;;;;3.10;2.00;;;;;;;;;;2316887;58;21055;-75
2022/07/24 09:22:27;;;;;;;2.50;1.92;;;;;;;;;;2353860;57;22524;-74
2022/07/24 09:25:09;;;;;;;2.17;1.60;;;;;;;;;;2343878;57;21689;-75
2022/07/24 09:27:36;;;;;;;4.32;1.87;;;;;;;;;;2343878;57;21088;-76
2022/07/24 09:30:04;;;;;;;4.43;1.67;;;;;;;;;;2345273;56;21109;-76
2022/07/24 09:32:31;;;;;;;2.25;1.90;;;;;;;;;;2372450;56;21122;-75
2022/07/24 09:34:59;;;;;;;2.40;1.70;;;;;;;;;;2374035;56;21058;-75
2022/07/24 09:37:27;;;;;;;3.33;1.73;;;;;;;;;;2372143;56;21549;-75
2022/07/24 09:40:06;;;;;;;3.10;1.83;;;;;;;;;;2373586;56;21086;-75
2022/07/24 09:42:38;;;;;;;3.05;1.70;;;;;;;;;;2374173;56;21078;-75
2022/07/24 09:45:08;;;;;;;3.05;1.70;;;;;;;;;;2372990;56;21118;-75
2022/07/24 09:47:35;;;;;;;2.65;2.12;;;;;;;;;;2372119;56;21027;-75
2022/07/24 09:50:13;;;;;;;3.15;1.95;;;;;;;;;;2371581;56;21043;-75
2022/07/24 09:52:41;;;;;;;2.20;2.00;;;;;;;;;;2372165;56;21035;-75
2022/07/24 09:55:20;;;;;;;2.17;1.98;;;;;;;;;;2372731;56;21042;-75
2022/07/24 09:57:48;;;;;;;2.65;2.08;;;;;;;;;;2373798;56;21094;-75
2022/07/24 10:00:15;;;;;;;4.22;1.95;;;;;;;;;;2371318;56;21118;-76
2022/07/24 10:02:44;;;;;;;3.12;2.33;;;;;;;;;;2371648;56;21609;-76
2022/07/24 10:05:12;;;;;;;4.22;2.25;;;;;;;;;;2626652;52;21050;-76
2022/07/24 10:07:39;;;;;;;2.50;2.05;;;;;;;;;;2371881;56;21691;-75
2022/07/24 10:10:08;;;;;;;2.65;2.30;;;;;;;;;;2373438;56;21596;-77
2022/07/24 10:12:35;;;;;;;4.37;2.65;;;;;;;;;;2373350;56;21047;-76
2022/07/24 10:15:03;;;;;;;2.33;2.00;;;;;;;;;;2372572;56;21066;-77
2022/07/24 10:17:34;;;;;;;4.20;2.30;;;;;;;;;;2372022;56;21672;-76
2022/07/24 10:20:04;;;;;;;5.85;2.35;;;;;;;;;;2371836;56;22423;-76
2022/07/24 10:22:38;;;;;;;4.18;2.50;;;;;;;;;;2369359;56;21125;-77
2022/07/24 10:25:04;;;;;;;;;;;;;;;;;;2375878;56;21066;-76
2022/07/24 10:27:32;;;;;;;3.53;2.33;;;;;;;;;;2372862;56;20081;-76
2022/07/24 10:30:00;;;;;;;3.85;2.20;;;;;;;;;;2373396;56;21101;-76
2022/07/24 10:32:28;;;;;;;3.28;2.35;;;;;;;;;;2371607;56;21114;-77
2022/07/24 10:35:14;;;;;;;3.78;2.62;;;;;;;;;;2372630;56;21035;-77
2022/07/24 10:40:24;;;;;;;5.45;2.62;;;;;;;;;;2293746;58;23718;-77
2022/07/24 10:43:09;;;;;;;3.90;2.50;;;;;;;;;;2288212;58;21074;-76
2022/07/24 10:45:37;;;;;;;4.03;2.45;;;;;;;;;;2288003;58;21079;-76
2022/07/24 10:48:23;;;;;;;3.37;2.45;;;;;;;;;;2288509;58;22094;-77
2022/07/24 10:51:06;;;;;;;2.90;2.60;;;;;;;;;;2288422;58;21062;-76
2022/07/24 10:53:43;;;;;;;3.25;2.50;;;;;;;;;;2289003;58;21086;-77
2022/07/24 10:56:21;;;;;;;5.00;2.65;;;;;;;;;;2288896;58;21308;-77
2022/07/24 10:59:03;;;;;;;6.47;3.03;;;;;;;;;;2288587;58;21110;-77
2022/07/24 11:01:31;;;;;;;3.83;2.40;;;;;;;;;;2393206;54;71975;-76
2022/07/24 11:03:59;;;;;;;2.67;2.45;;;;;;;;;;2214460;61;21334;-75
2022/07/24 11:06:45;;;;;;;2.97;2.65;;;;;;;;;;2432814;57;21142;-75
2022/07/24 11:09:12;;;;;;;3.00;2.70;;;;;;;;;;2433868;57;21102;-77
2022/07/24 11:11:43;;;;;;;4.22;2.75;;;;;;;;;;2213780;61;21607;-75
2022/07/24 11:14:11;;;;;;;4.82;2.92;;;;;;;;;;2214134;61;21709;-76
2022/07/24 11:16:39;;;;;;;3.03;2.62;;;;;;;;;;2213787;61;21683;-77
2022/07/24 11:19:24;;;;;;;4.22;3.30;;;;;;;;;;2213753;61;21158;-77
2022/07/24 11:22:02;;;;;;;4.05;3.00;;;;;;;;;;2432703;57;21567;-77
2022/07/24 11:24:30;;;;;;;5.78;3.20;;;;;;;;;;2215076;61;21170;-77
2022/07/24 11:26:59;;;;;;;3.62;2.78;;;;;;;;;;2214085;61;21149;-75
2022/07/24 11:29:27;;;;;;;3.45;2.60;;;;;;;;;;2214466;61;21063;-77
2022/07/24 11:31:55;;;;;;;5.00;2.50;;;;;;;;;;2214414;61;21099;-76
2022/07/24 11:34:23;;;;;;;3.70;3.03;;;;;;;;;;2215225;61;21797;-75
2022/07/24 11:36:52;;;;;;;3.45;2.90;;;;;;;;;;2214739;61;21067;-77
2022/07/24 11:39:19;;;;;;;4.45;3.03;;;;;;;;;;2213859;61;21067;-77
2022/07/24 11:41:47;;;;;;;3.72;3.33;;;;;;;;;;2214777;61;21535;-76
2022/07/24 11:44:14;;;;;;;4.47;3.55;;;;;;;;;;2433380;57;21591;-77
2022/07/24 11:46:43;;;;;;;4.85;3.08;;;;;;;;;;2214469;61;21143;-77
2022/07/24 11:49:11;;;;;;;4.47;3.70;;;;;;;;;;2215781;61;21110;-77
2022/07/24 11:51:44;;;;;;;4.32;3.17;;;;;;;;;;2214878;61;21122;-76
2022/07/24 11:54:11;;;;;;;4.40;3.30;;;;;;;;;;2214139;61;21150;-77
2022/07/24 11:56:38;;;;;;;4.57;3.20;;;;;;;;;;2214305;61;21150;-76
2022/07/24 11:59:05;;;;;;;5.45;4.03;;;;;;;;;;2432900;56;21083;-77
2022/07/24 12:01:32;;;;;;;3.40;3.00;;;;;;;;;;2214113;61;21094;-77
2022/07/24 12:04:00;;;;;;;4.28;3.20;;;;;;;;;;2213627;61;21070;-77
2022/07/24 12:06:28;;;;;;;6.60;4.18;;;;;;;;;;2213735;61;21154;-76
2022/07/24 12:08:58;;;;;;;3.87;3.10;;;;;;;;;;2214629;61;21132;-75
2022/07/24 12:11:25;;;;;;;7.12;3.87;;;;;;;;;;2214277;61;21142;-77
2022/07/24 12:13:52;;;;;;;4.60;3.87;;;;;;;;;;2214141;61;21070;-76
2022/07/24 12:16:24;;;;;;;5.22;3.40;;;;;;;;;;2214235;61;21071;-76
2022/07/24 12:18:51;;;;;;;4.22;3.83;;;;;;;;;;2213682;61;21634;-76
2022/07/24 12:21:18;;;;;;;6.35;4.18;;;;;;;;;;2213915;61;21147;-76
2022/07/24 12:23:46;;;;;;;9.45;3.65;;;;;;;;;;2214274;61;21131;-76
2022/07/24 12:26:13;;;;;;;4.75;3.35;;;;;;;;;;2214301;61;21127;-76
2022/07/24 12:28:40;;;;;;;5.22;3.92;;;;;;;;;;2433903;57;21082;-77
2022/07/24 12:31:08;;;;;;;4.15;3.37;;;;;;;;;;2214040;61;21083;-77
2022/07/24 12:33:35;;;;;;;5.43;3.97;;;;;;;;;;2212767;61;21091;-77
2022/07/24 12:36:08;;;;;;;4.87;3.60;;;;;;;;;;2212410;61;21083;-77
2022/07/24 12:38:36;;;;;;;4.63;3.77;;;;;;;;;;2213923;61;21102;-77
2022/07/24 12:41:04;;;;;;;3.97;3.40;;;;;;;;;;2213449;61;21155;-77
2022/07/24 12:43:31;;;;;;;4.53;3.55;;;;;;;;;;2432804;57;21139;-77
2022/07/24 12:46:17;;;;;;;4.37;3.92;;;;;;;;;;2431844;57;21559;-76
2022/07/24 12:48:57;;;;;;;4.32;3.55;;;;;;;;;;2433262;57;21078;-77
2022/07/24 12:51:24;;;;;;;3.62;3.33;;;;;;;;;;2213635;61;21166;-77
2022/07/24 12:53:54;;;;;;;4.43;3.75;;;;;;;;;;2214115;61;21147;-77
2022/07/24 12:56:21;;;;;;;3.92;3.35;;;;;;;;;;2431974;57;21182;-77
2022/07/24 12:58:49;;;;;;;14.85;4.47;;;;;;;;;;2213924;61;21662;-78
2022/07/24 13:01:16;;;;;;;4.62;3.78;;;;;;;;;;2213716;61;21147;-77
2022/07/24 13:03:44;;;;;;;5.25;3.60;;;;;;;;;;2213515;61;21575;-77
2022/07/24 13:06:11;;;;;;;4.40;3.80;;;;;;;;;;2213558;61;21074;-77
2022/07/24 13:08:38;;;;;;;4.97;3.35;;;;;;;;;;2432314;57;21107;-77
2022/07/24 13:11:05;;;;;;;5.25;3.70;;;;;;;;;;2213233;61;21647;-77
2022/07/24 13:13:32;;;;;;;5.53;3.47;;;;;;;;;;2214486;61;21152;-77
2022/07/24 13:15:59;;;;;;;4.28;3.45;;;;;;;;;;2213667;61;21091;-77
2022/07/24 13:18:26;;;;;;;5.22;3.25;;;;;;;;;;2213350;61;21071;-77
2022/07/24 13:20:52;;;;;;;4.15;3.35;;;;;;;;;;2213710;61;21059;-77
2022/07/24 13:23:19;;;;;;;4.75;3.58;;;;;;;;;;2211971;61;21135;-77
2022/07/24 13:25:47;;;;;;;3.95;3.47;;;;;;;;;;2431837;56;21611;-78
2022/07/24 13:28:14;;;;;;;4.70;3.30;;;;;;;;;;2432500;56;21131;-78
2022/07/24 13:30:41;;;;;;;3.95;3.10;;;;;;;;;;2214360;61;21134;-77
2022/07/24 13:33:08;;;;;;;6.00;3.37;;;;;;;;;;2212564;61;21070;-78
2022/07/24 13:35:36;;;;;;;4.18;3.60;;;;;;;;;;2432383;57;21551;-77
2022/07/24 13:38:03;;;;;;;4.30;3.22;;;;;;;;;;2213234;61;21134;-78
2022/07/24 13:40:30;;;;;;;5.05;3.40;;;;;;;;;;2214257;61;21059;-79
2022/07/24 13:42:57;;;;;;;3.75;3.35;;;;;;;;;;2213269;61;21138;-77
2022/07/24 13:45:24;;;;;;;5.43;3.62;;;;;;;;;;2212436;61;21098;-78
2022/07/24 13:47:51;;;;;;;4.32;3.37;;;;;;;;;;2432345;57;21079;-76
2022/07/24 13:50:18;;;;;;;3.90;3.20;;;;;;;;;;2213114;61;21698;-78
2022/07/24 13:52:45;;;;;;;6.93;3.50;;;;;;;;;;2213468;61;21058;-78
2022/07/24 13:55:12;;;;;;;4.68;3.08;;;;;;;;;;2213424;61;21086;-77
2022/07/24 13:57:39;;;;;;;3.28;2.97;;;;;;;;;;2213253;61;21213;-77
2022/07/24 14:00:13;;;;;;;3.47;3.17;;;;;;;;;;2215896;61;21063;-86
2022/07/24 14:02:40;;;;;;;3.60;2.35;;;;;;;;;;2216278;61;21094;-83
2022/07/24 14:05:08;;;;;;;3.33;3.03;;;;;;;;;;2436260;56;21087;-84
2022/07/24 14:07:35;;;;;;;3.33;3.03;;;;;;;;;;2435113;57;21135;-85
2022/07/24 14:10:02;;;;;;;3.62;3.33;;;;;;;;;;2216005;61;21588;-85
2022/07/24 14:12:30;;;;;;;8.75;3.12;;;;;;;;;;2216251;61;21360;-84
2022/07/24 14:14:57;;;;;;;2.97;2.78;;;;;;;;;;2434302;57;21146;-84
2022/07/24 14:17:24;;;;;;;4.40;3.60;;;;;;;;;;2215927;61;21060;-85
2022/07/24 14:19:51;;;;;;;4.57;3.30;;;;;;;;;;2216231;61;21226;-85
2022/07/24 14:22:18;;;;;;;4.78;3.40;;;;;;;;;;2433924;56;21129;-84
2022/07/24 14:24:45;;;;;;;3.92;3.50;;;;;;;;;;2216294;61;21155;-84
2022/07/24 14:27:12;;;;;;;5.25;3.65;;;;;;;;;;2216055;61;21147;-84
2022/07/24 14:29:39;;;;;;;3.42;3.12;;;;;;;;;;2434565;56;21142;-84
2022/07/24 14:32:06;;;;;;;4.35;3.08;;;;;;;;;;2434284;57;21111;-84
2022/07/24 14:34:33;;;;;;;4.43;3.37;;;;;;;;;;2216562;61;21087;-85
2022/07/24 14:37:00;;;;;;;3.97;3.35;;;;;;;;;;2434871;56;21130;-84
2022/07/24 14:39:28;;;;;;;3.87;3.00;;;;;;;;;;2215935;61;21079;-85
2022/07/24 14:41:55;;;;;;;5.30;3.37;;;;;;;;;;2215655;61;21170;-85
2022/07/24 14:44:22;;;;;;;3.58;3.03;;;;;;;;;;2435867;56;21091;-85
2022/07/24 14:46:49;;;;;;;3.70;3.33;;;;;;;;;;2215295;61;21067;-84
2022/07/24 14:49:16;;;;;;;4.12;3.12;;;;;;;;;;2434200;57;21115;-85
2022/07/24 14:51:43;;;;;;;3.45;3.15;;;;;;;;;;2434921;56;21611;-85
2022/07/24 14:54:10;;;;;;;4.25;3.25;;;;;;;;;;2216140;61;21142;-85
2022/07/24 14:56:38;;;;;;;4.62;3.33;;;;;;;;;;2216462;61;21079;-86